createdAt,value
2023-03-07T00:01:52.589Z,99111.81
2023-03-07T00:04:25.028Z,99134.28
2023-03-07T00:06:54.689Z,99124.63
2023-03-07T00:09:24.381Z,99120.13
2023-03-07T00:11:54.973Z,99112.59
2023-03-07T00:14:24.742Z,99124.69
2023-03-07T00:16:54.719Z,99052.59
2023-03-07T00:19:27.248Z,99137.22
2023-03-07T00:21:57.247Z,99123.66
2023-03-07T00:24:27.102Z,99114.19
2023-03-07T00:26:56.905Z,99109.25
2023-03-07T00:29:26.578Z,99096.44
2023-03-07T00:31:56.304Z,99117.88
2023-03-07T00:34:28.853Z,99056.78
2023-03-07T00:36:58.711Z,99087.66
2023-03-07T00:39:28.543Z,99086.53
2023-03-07T00:41:58.287Z,99097.72
2023-03-07T00:44:30.129Z,99082.78
2023-03-07T00:46:59.830Z,99085.41
2023-03-07T00:49:32.545Z,99066.59
2023-03-07T00:52:02.415Z,99071.78
2023-03-07T00:54:32.794Z,99070.81
2023-03-07T00:57:02.591Z,99052.09
2023-03-07T00:59:32.886Z,99051.66
2023-03-07T01:02:02.669Z,99039.09
2023-03-07T01:04:35.063Z,99058.59
2023-03-07T01:07:04.787Z,99004.72
2023-03-07T01:09:34.677Z,99005.75
2023-03-07T01:12:07.324Z,99045.25
2023-03-07T01:14:37.120Z,99046.91
2023-03-07T01:17:06.932Z,98996.03
2023-03-07T01:19:39.355Z,99031.31
2023-03-07T01:22:09.322Z,99021.09
2023-03-07T01:24:39.038Z,98999.03
2023-03-07T01:27:09.104Z,98993.13
2023-03-07T01:29:39.099Z,99017.88
2023-03-07T01:32:09.448Z,99025.56
2023-03-07T01:34:42.107Z,99015.50
2023-03-07T01:37:12.133Z,99025.47
2023-03-07T01:39:43.061Z,98991.88
2023-03-07T01:42:16.844Z,98978.16
2023-03-07T01:45:05.834Z,99006.19
2023-03-07T01:47:43.615Z,99006.34
2023-03-07T01:50:19.214Z,98969.19
2023-03-07T01:52:52.436Z,99002.41
2023-03-07T01:55:25.504Z,98996.59
2023-03-07T01:57:59.508Z,98969.44
2023-03-07T02:00:30.043Z,98989.88
2023-03-07T02:03:07.410Z,98972.97
2023-03-07T02:05:43.705Z,98977.41
2023-03-07T02:08:16.476Z,98974.97
2023-03-07T02:10:46.451Z,98982.41
2023-03-07T02:13:16.169Z,98966.25
2023-03-07T02:15:46.536Z,98921.13
2023-03-07T02:18:20.698Z,98971.56
2023-03-07T02:20:59.053Z,98963.94
2023-03-07T02:23:35.540Z,98973.69
2023-03-07T02:26:13.252Z,98982.03
2023-03-07T02:28:47.063Z,98948.91
2023-03-07T02:31:17.729Z,98926.66
2023-03-07T02:33:47.497Z,98947.38
2023-03-07T02:36:21.629Z,98963.28
2023-03-07T02:39:01.721Z,98966.91
2023-03-07T02:41:34.958Z,98958.34
2023-03-07T02:44:12.977Z,98930.19
2023-03-07T02:46:42.734Z,98947.75
2023-03-07T02:49:12.513Z,98944.63
2023-03-07T02:51:42.425Z,98959.97
2023-03-07T02:54:12.776Z,98918.75
2023-03-07T02:56:42.524Z,98939.94
2023-03-07T02:59:14.819Z,98942.31
2023-03-07T03:01:44.653Z,98946.50
2023-03-07T03:04:14.731Z,98957.66
2023-03-07T03:06:45.624Z,98884.75
2023-03-07T03:09:15.400Z,98950.25
2023-03-07T03:11:45.093Z,98949.44
2023-03-07T03:14:17.373Z,98936.84
2023-03-07T03:16:47.050Z,98928.34
2023-03-07T03:19:18.146Z,98935.25
2023-03-07T03:21:47.985Z,98908.97
2023-03-07T03:24:18.611Z,98930.34
2023-03-07T03:26:49.943Z,98937.78
2023-03-07T03:29:23.768Z,98886.03
2023-03-07T03:31:53.761Z,98932.16
2023-03-07T03:34:23.620Z,98944.81
2023-03-07T03:36:54.674Z,98932.44
2023-03-07T03:39:24.553Z,98932.44
2023-03-07T03:41:58.672Z,98923.22
2023-03-07T03:44:31.047Z,98886.53
2023-03-07T03:47:01.375Z,98873.81
2023-03-07T03:49:31.729Z,98902.03
2023-03-07T03:52:01.452Z,98872.91
2023-03-07T03:54:31.140Z,98931.41
2023-03-07T03:57:01.166Z,98915.25
2023-03-07T03:59:35.683Z,98906.75
2023-03-07T04:02:05.474Z,98907.66
2023-03-07T04:04:35.164Z,98929.56
2023-03-07T04:07:04.868Z,98867.44
2023-03-07T04:09:35.416Z,98893.94
2023-03-07T04:12:06.100Z,98903.22
2023-03-07T04:14:38.989Z,98912.88
2023-03-07T04:17:08.708Z,98907.94
2023-03-07T04:19:38.388Z,98902.03
2023-03-07T04:22:11.307Z,98829.78
2023-03-07T04:24:41.172Z,98907.78
2023-03-07T04:27:11.088Z,98865.44
2023-03-07T04:29:43.824Z,98875.50
2023-03-07T04:32:18.264Z,98913.88
2023-03-07T04:34:48.306Z,98926.44
2023-03-07T04:37:17.993Z,98904.28
2023-03-07T04:39:47.735Z,98941.50
2023-03-07T04:42:17.402Z,98953.94
2023-03-07T04:44:49.642Z,98939.44
2023-03-07T04:47:20.950Z,98880.75
2023-03-07T04:49:50.744Z,98897.34
2023-03-07T04:52:20.455Z,98948.19
2023-03-07T04:54:50.512Z,98963.31
2023-03-07T04:57:20.235Z,98890.88
2023-03-07T04:59:52.717Z,98928.50
2023-03-07T05:02:24.439Z,98934.41
2023-03-07T05:04:54.691Z,98860.38
2023-03-07T05:07:25.172Z,98905.47
2023-03-07T05:09:54.952Z,98894.59
2023-03-07T05:12:25.050Z,98859.97
2023-03-07T05:14:58.004Z,98902.38
2023-03-07T05:17:27.651Z,98910.16
2023-03-07T05:19:57.440Z,98894.75
2023-03-07T05:22:27.819Z,98915.44
2023-03-07T05:24:58.529Z,98902.63
2023-03-07T05:27:28.671Z,98895.72
2023-03-07T05:30:00.980Z,98906.09
2023-03-07T05:32:30.686Z,98856.06
2023-03-07T05:35:00.538Z,98894.38
2023-03-07T05:37:30.418Z,98910.44
2023-03-07T05:40:00.260Z,98873.84
2023-03-07T05:42:30.063Z,98906.22
2023-03-07T05:45:02.448Z,98886.84
2023-03-07T05:47:33.078Z,98898.47
2023-03-07T05:50:02.861Z,98905.44
2023-03-07T05:52:32.679Z,98907.16
2023-03-07T05:55:02.371Z,98884.28
2023-03-07T05:57:32.043Z,98882.28
2023-03-07T06:00:06.206Z,98906.81
2023-03-07T06:02:44.425Z,98909.25
2023-03-07T06:05:16.759Z,98894.00
2023-03-07T06:07:46.766Z,98879.44
2023-03-07T06:10:17.817Z,98905.84
2023-03-07T06:12:51.750Z,98875.00
2023-03-07T06:15:25.353Z,98904.69
2023-03-07T06:18:02.076Z,98883.72
2023-03-07T06:20:32.359Z,98902.56
2023-03-07T06:23:03.395Z,98903.44
2023-03-07T06:25:33.166Z,98906.03
2023-03-07T06:28:04.301Z,98900.28
2023-03-07T06:30:37.362Z,98794.97
2023-03-07T06:33:08.331Z,98850.41
2023-03-07T06:35:41.957Z,98853.69
2023-03-07T06:38:13.744Z,98892.81
2023-03-07T06:40:48.098Z,98814.56
2023-03-07T06:43:19.536Z,98882.59
2023-03-07T06:45:54.086Z,98895.53
2023-03-07T06:48:26.853Z,98888.63
2023-03-07T06:50:58.057Z,98887.63
2023-03-07T06:53:28.613Z,98921.53
2023-03-07T06:55:58.359Z,98897.72
2023-03-07T06:58:28.499Z,98845.00
2023-03-07T07:01:02.021Z,98916.66
2023-03-07T07:03:45.784Z,98908.94
2023-03-07T07:06:17.803Z,98931.13
2023-03-07T07:08:51.195Z,98929.34
2023-03-07T07:11:25.454Z,98925.03
2023-03-07T07:13:57.938Z,98916.44
2023-03-07T07:16:34.174Z,98922.34
2023-03-07T07:19:06.525Z,98932.53
2023-03-07T07:21:40.828Z,98908.84
2023-03-07T07:24:16.545Z,98920.75
2023-03-07T07:26:47.488Z,98942.78
2023-03-07T07:29:18.208Z,98941.63
2023-03-07T07:31:53.818Z,98940.16
2023-03-07T07:34:26.285Z,98931.53
2023-03-07T07:36:57.183Z,98929.59
2023-03-07T07:39:27.632Z,98932.88
2023-03-07T07:42:01.133Z,98945.53
2023-03-07T07:44:46.945Z,98953.22
2023-03-07T07:47:27.972Z,98960.72
2023-03-07T07:49:58.937Z,98925.66
2023-03-07T07:52:29.750Z,98901.72
2023-03-07T07:55:00.746Z,98955.22
2023-03-07T07:57:31.509Z,98921.88
2023-03-07T08:00:04.583Z,98947.84
2023-03-07T08:02:46.040Z,98920.47
2023-03-07T08:05:17.309Z,98951.09
2023-03-07T08:07:48.415Z,98954.16
2023-03-07T08:11:44.324Z,98823.88
2023-03-07T08:15:15.726Z,98637.59
2023-03-07T08:49:18.146Z,98980.91
2023-03-07T08:52:11.354Z,98987.59
2023-03-07T08:55:59.143Z,98984.06
2023-03-07T08:59:11.960Z,98772.88
2023-03-07T09:02:44.407Z,98801.69
2023-03-07T09:05:55.000Z,98817.19
2023-03-07T09:09:25.965Z,98891.09
2023-03-07T09:12:20.841Z,98808.59
2023-03-07T09:17:26.723Z,98980.59
2023-03-07T09:20:25.761Z,98777.84
2023-03-07T09:40:23.817Z,98983.53
2023-03-07T09:43:06.790Z,98988.97
2023-03-07T09:45:53.569Z,98998.19
2023-03-07T09:49:03.760Z,98932.72
2023-03-07T09:51:43.991Z,98955.53
2023-03-07T09:54:19.290Z,98978.59
2023-03-07T09:56:59.920Z,98965.84
2023-03-07T09:59:40.367Z,98977.19
2023-03-07T10:02:24.972Z,98943.41
2023-03-07T10:05:04.826Z,98911.19
2023-03-07T10:07:40.203Z,98897.75
2023-03-07T10:18:04.673Z,98835.56
2023-03-07T10:20:43.147Z,98866.44
2023-03-07T10:23:29.444Z,98980.47
2023-03-07T10:26:08.532Z,98986.56
2023-03-07T10:28:43.116Z,98667.00
2023-03-07T10:31:23.919Z,98754.16
2023-03-07T10:33:57.400Z,98940.94
2023-03-07T10:36:41.134Z,98822.72
2023-03-07T10:42:50.768Z,98947.22
2023-03-07T10:45:20.731Z,98981.78
2023-03-07T10:47:50.457Z,98950.16
2023-03-07T10:50:34.298Z,98971.34
2023-03-07T10:53:06.604Z,98990.28
2023-03-07T10:55:39.782Z,98947.53
2023-03-07T10:58:19.708Z,98976.06
2023-03-07T11:01:01.828Z,98985.84
2023-03-07T11:03:51.160Z,98981.94
2023-03-07T11:06:40.412Z,98909.09
2023-03-07T11:09:19.904Z,98937.97
2023-03-07T11:11:52.697Z,98952.78
2023-03-07T11:14:24.073Z,98890.63
2023-03-07T11:16:56.145Z,98958.63
2023-03-07T11:19:43.297Z,98959.69
2023-03-07T11:22:28.582Z,98965.56
2023-03-07T11:25:05.431Z,98968.31
2023-03-07T11:27:39.322Z,98965.00
2023-03-07T11:30:25.169Z,98951.59
2023-03-07T11:33:00.387Z,98947.53
2023-03-07T11:35:44.716Z,98934.16
2023-03-07T11:38:28.682Z,98937.16
2023-03-07T11:41:04.934Z,98943.94
2023-03-07T11:43:56.905Z,98959.41
2023-03-07T11:46:41.539Z,98942.59
2023-03-07T11:49:24.561Z,98972.31
2023-03-07T11:52:10.274Z,98974.28
2023-03-07T11:54:51.334Z,98973.44
2023-03-07T11:57:29.754Z,98947.19
2023-03-07T12:00:14.348Z,98972.66
2023-03-07T12:02:59.681Z,98976.03
2023-03-07T12:05:58.872Z,98974.41
2023-03-07T12:08:43.529Z,98978.59
2023-03-07T12:11:33.630Z,98979.34
2023-03-07T12:14:14.984Z,98977.63
2023-03-07T12:16:52.543Z,98929.28
2023-03-07T12:19:39.839Z,98986.78
2023-03-07T12:22:25.333Z,98975.06
2023-03-07T12:25:11.498Z,98946.81
2023-03-07T12:27:48.267Z,98964.69
2023-03-07T12:30:22.614Z,98989.06
2023-03-07T12:32:54.098Z,98887.81
2023-03-07T12:35:29.565Z,98982.13
2023-03-07T12:38:07.199Z,98979.59
2023-03-07T12:40:40.895Z,98939.03
2023-03-07T12:43:19.749Z,98983.56
2023-03-07T12:45:53.874Z,98976.59
2023-03-07T12:48:33.553Z,98972.19
2023-03-07T12:51:09.800Z,98978.66
2023-03-07T12:53:44.438Z,98922.50
2023-03-07T12:56:18.376Z,98974.47
2023-03-07T12:58:54.749Z,98975.38
2023-03-07T13:01:30.586Z,98899.88
2023-03-07T13:04:09.379Z,98930.69
2023-03-07T13:06:41.652Z,98945.25
2023-03-07T13:09:19.743Z,98983.47
2023-03-07T13:12:12.171Z,98966.84
2023-03-07T13:14:46.903Z,98953.91
2023-03-07T13:17:37.598Z,98921.03
2023-03-07T13:20:44.236Z,98975.63
2023-03-07T13:23:31.431Z,98977.38
2023-03-07T13:26:11.894Z,98962.59
2023-03-07T13:28:53.481Z,98973.41
2023-03-07T13:31:39.889Z,98955.34
2023-03-07T13:34:46.472Z,98991.34
2023-03-07T13:37:54.933Z,99013.66
2023-03-07T13:53:17.969Z,99025.28
2023-03-07T15:12:20.247Z,98719.47
2023-03-07T15:52:31.058Z,99062.34
